Time;durP1;ratioP1;P1;durP2;ratioP2;P2;SDS_P1;SDS_P2;PMS_P1;PMS_P2;Temp;Humidity;BMP_temperature;BMP_pressure;BME280_temperature;BME280_humidity;BME280_pressure;Samples;Min_cycle;Max_cycle;Signal;HPM_P1;HPM_P2
2023/06/26 00:02:20;;;;;;;11.80;6.70;;;;;;;20.71;67.24;99983.11;105054;1253;61412;-59
2023/06/26 00:04:47;;;;;;;10.20;6.60;;;;;;;20.66;67.15;99980.44;105044;1258;62520;-58
2023/06/26 00:07:15;;;;;;;12.00;7.00;;;;;;;20.55;67.18;99984.08;105094;1256;61240;-57
2023/06/26 00:09:43;;;;;;;10.80;7.50;;;;;;;20.43;67.54;99982.94;105567;1258;60506;-60
2023/06/26 00:12:10;;;;;;;9.50;7.50;;;;;;;20.28;67.89;99988.40;105144;1253;76024;-58
2023/06/26 00:14:38;;;;;;;9.60;6.90;;;;;;;20.14;68.23;99991.14;105195;1258;62580;-60
2023/06/26 00:17:05;;;;;;;11.10;7.70;;;;;;;20.04;68.42;99986.11;104956;1253;63742;-62
2023/06/26 00:19:33;;;;;;;11.10;7.50;;;;;;;19.99;68.69;99989.11;105092;1256;60518;-60
2023/06/26 00:22:00;;;;;;;10.20;7.50;;;;;;;19.94;68.91;99985.12;104889;1258;60342;-58
2023/06/26 00:24:28;;;;;;;8.80;7.20;;;;;;;19.88;69.08;99985.25;104681;1253;64962;-62
2023/06/26 00:26:55;;;;;;;11.10;7.50;;;;;;;19.84;69.31;99983.74;105150;1253;63404;-58
2023/06/26 00:29:23;;;;;;;13.80;7.50;;;;;;;19.81;69.39;99982.81;105366;1253;63696;-60
2023/06/26 00:31:50;;;;;;;11.00;6.80;;;;;;;19.76;69.75;99976.68;105950;1258;60666;-58
2023/06/26 00:34:19;;;;;;;10.80;7.40;;;;;;;19.74;70.08;99972.63;105097;1253;60499;-58
2023/06/26 00:36:46;;;;;;;10.80;8.10;;;;;;;19.69;70.11;99968.06;104918;1253;63609;-61
2023/06/26 00:39:14;;;;;;;11.10;7.30;;;;;;;19.62;70.32;99969.48;105530;1256;64058;-61
2023/06/26 00:41:41;;;;;;;9.70;7.20;;;;;;;19.57;70.42;99967.23;104980;1254;66219;-60
2023/06/26 00:44:11;;;;;;;9.70;7.30;;;;;;;19.55;70.46;99965.89;106098;1255;59575;-62
2023/06/26 00:46:38;;;;;;;9.40;6.90;;;;;;;19.54;70.65;99963.66;106106;1253;60368;-61
2023/06/26 00:49:06;;;;;;;12.60;7.80;;;;;;;19.54;70.56;99958.40;105170;1256;63626;-68
2023/06/26 00:51:33;;;;;;;12.60;8.00;;;;;;;19.53;70.59;99960.48;105031;1258;60391;-68
2023/06/26 00:54:01;;;;;;;10.40;6.90;;;;;;;19.50;70.62;99964.48;105016;1256;62517;-68
2023/06/26 00:56:31;;;;;;;11.70;7.40;;;;;;;19.50;70.77;99960.83;105012;1258;60506;-66
2023/06/26 00:58:58;;;;;;;12.10;8.40;;;;;;;19.50;70.84;99959.44;105630;1256;60498;-69
2023/06/26 01:01:26;;;;;;;13.70;8.70;;;;;;;19.44;70.95;99959.88;104931;1258;63615;-69
2023/06/26 01:03:54;;;;;;;10.00;7.50;;;;;;;19.40;71.15;99958.32;105082;1253;61604;-65
2023/06/26 01:06:22;;;;;;;10.80;8.10;;;;;;;19.41;71.46;99954.07;104926;1258;62704;-65
2023/06/26 01:08:49;;;;;;;10.70;8.40;;;;;;;19.49;71.38;99956.11;104971;1253;60537;-68
2023/06/26 01:11:18;;;;;;;10.50;7.50;;;;;;;19.58;71.23;99953.79;104951;1258;60420;-67
2023/06/26 01:13:46;;;;;;;11.50;8.60;;;;;;;19.64;71.07;99951.60;104901;1253;64848;-67
2023/06/26 01:16:13;;;;;;;12.20;8.50;;;;;;;19.70;70.76;99948.59;105644;1258;60467;-67
2023/06/26 01:18:41;;;;;;;12.00;8.90;;;;;;;19.74;70.67;99950.16;105117;1256;63726;-66
2023/06/26 01:21:09;;;;;;;11.00;8.40;;;;;;;19.73;70.56;99951.70;104986;1258;60419;-66
2023/06/26 01:24:09;;;;;;;12.10;8.20;;;;;;;19.68;70.33;99948.98;105064;1253;60449;-65
2023/06/26 01:26:36;;;;;;;11.60;7.10;;;;;;;19.66;70.20;99946.64;105091;1258;65778;-66
2023/06/26 01:29:05;;;;;;;11.00;8.00;;;;;;;19.64;70.04;99949.21;104872;1262;61438;-65
2023/06/26 01:31:33;;;;;;;10.20;7.70;;;;;;;19.63;70.17;99951.91;105073;1258;62630;-67
2023/06/26 01:34:01;;;;;;;11.20;7.60;;;;;;;19.63;69.97;99952.65;105441;1253;60565;-66
2023/06/26 01:36:29;;;;;;;11.40;8.20;;;;;;;19.64;69.93;99955.33;104957;1261;60393;-68
2023/06/26 01:52:41;;;;;;;10.20;7.60;;;;;;;19.48;69.98;99955.00;102629;1290;605601;-67
2023/06/26 01:55:16;;;;;;;11.10;8.10;;;;;;;19.79;68.63;99952.90;104664;1276;94921;-69
2023/06/26 01:57:44;;;;;;;11.30;7.50;;;;;;;19.71;68.69;99952.80;104100;1273;61181;-70
2023/06/26 02:00:12;;;;;;;11.40;8.40;;;;;;;19.63;68.73;99949.98;103977;1274;63358;-66
2023/06/26 02:02:41;;;;;;;10.80;8.00;;;;;;;19.55;68.95;99946.11;104572;1270;61365;-69
2023/06/26 02:05:12;;;;;;;12.40;8.40;;;;;;;19.50;69.15;99943.89;104224;1268;63737;-69
2023/06/26 02:07:40;;;;;;;11.40;8.20;;;;;;;19.45;69.28;99945.27;104526;1263;60119;-71
2023/06/26 02:10:08;;;;;;;10.70;8.00;;;;;;;19.39;69.32;99939.23;104396;1263;59891;-71
2023/06/26 02:12:36;;;;;;;12.50;9.00;;;;;;;19.32;69.63;99934.64;104388;1263;62135;-71
2023/06/26 02:15:05;;;;;;;10.30;8.40;;;;;;;19.27;69.96;99935.52;104648;1264;61347;-71
2023/06/26 02:17:33;;;;;;;11.60;8.60;;;;;;;19.24;70.15;99932.49;104931;1263;62470;-70
2023/06/26 02:20:01;;;;;;;12.90;9.60;;;;;;;19.26;70.13;99930.94;104350;1264;59778;-71
2023/06/26 02:22:28;;;;;;;12.70;8.40;;;;;;;19.26;70.20;99928.42;104621;1265;59649;-70
2023/06/26 02:24:56;;;;;;;13.10;8.40;;;;;;;19.26;70.19;99934.27;104504;1260;65062;-70
2023/06/26 02:27:23;;;;;;;14.60;8.70;;;;;;;19.27;70.20;99933.54;104626;1264;60131;-70
2023/06/26 02:29:53;;;;;;;14.30;8.60;;;;;;;19.29;70.16;99934.79;104475;1260;63749;-70
2023/06/26 02:32:20;;;;;;;10.40;8.40;;;;;;;19.32;70.40;99936.17;104732;1265;59679;-72
2023/06/26 02:34:51;;;;;;;10.30;8.40;;;;;;;19.39;70.64;99930.16;104458;1264;59596;-71
2023/06/26 02:37:19;;;;;;;11.80;8.70;;;;;;;19.46;70.68;99926.81;105006;1259;64166;-70
2023/06/26 02:39:47;;;;;;;10.90;7.90;;;;;;;19.54;70.69;99928.10;104783;1260;61303;-66
2023/06/26 02:42:14;;;;;;;11.90;8.20;;;;;;;19.64;70.46;99928.80;104638;1260;63823;-69
2023/06/26 02:44:42;;;;;;;11.50;7.80;;;;;;;19.74;69.84;99933.59;104642;1260;59775;-68
2023/06/26 02:47:10;;;;;;;12.80;8.10;;;;;;;19.79;69.29;99936.52;104950;1266;59644;-68
2023/06/26 02:49:40;;;;;;;10.60;7.30;;;;;;;19.83;69.09;99936.80;104608;1260;64115;-68
2023/06/26 02:52:07;;;;;;;10.00;7.40;;;;;;;19.89;68.50;99938.19;104507;1265;69566;-70
2023/06/26 02:54:35;;;;;;;13.40;8.20;;;;;;;19.91;68.31;99937.95;104460;1263;64750;-66
2023/06/26 02:57:04;;;;;;;11.00;8.00;;;;;;;19.90;68.01;99937.56;104687;1262;59746;-68
2023/06/26 02:59:32;;;;;;;9.80;6.80;;;;;;;19.88;67.61;99935.77;104630;1264;59602;-65
2023/06/26 03:02:00;;;;;;;10.20;7.30;;;;;;;19.89;67.56;99938.58;105047;1260;64084;-67
2023/06/26 03:04:36;;;;;;;11.20;7.00;;;;;;;19.89;67.54;99935.71;104535;1262;61410;-66
2023/06/26 03:07:04;;;;;;;7.60;5.50;;;;;;;19.91;67.41;99936.52;104743;1260;63699;-69
2023/06/26 03:09:32;;;;;;;9.10;6.40;;;;;;;19.91;67.27;99934.38;104768;1260;59768;-68
2023/06/26 03:11:59;;;;;;;9.50;6.40;;;;;;;19.92;67.18;99928.96;104568;1264;59674;-68
2023/06/26 03:14:27;;;;;;;11.30;6.80;;;;;;;19.91;66.82;99930.30;104605;1260;64123;-66
2023/06/26 03:16:57;;;;;;;8.70;6.20;;;;;;;19.88;66.54;99930.13;104707;1263;60914;-68
2023/06/26 03:19:26;;;;;;;10.60;5.90;;;;;;;19.85;66.13;99931.17;104533;1262;63804;-70
2023/06/26 03:22:26;;;;;;;8.10;6.50;;;;;;;19.84;65.83;99928.13;104301;1267;59822;-70
2023/06/26 03:24:55;;;;;;;9.20;5.70;;;;;;;19.84;65.85;99924.59;104647;1263;59582;-68
2023/06/26 03:27:23;;;;;;;8.10;5.60;;;;;;;19.84;65.60;99924.21;104622;1264;64138;-72
2023/06/26 03:29:52;;;;;;;9.70;6.20;;;;;;;19.84;65.62;99915.69;104651;1264;62686;-68
2023/06/26 03:32:20;;;;;;;9.60;6.40;;;;;;;19.81;65.42;99917.59;105314;1259;64260;-68
2023/06/26 03:34:47;;;;;;;9.40;5.80;;;;;;;19.77;65.30;99920.14;104628;1260;59653;-67
2023/06/26 03:37:15;;;;;;;11.00;6.20;;;;;;;19.74;65.37;99922.81;104567;1259;59584;-67
2023/06/26 03:39:43;;;;;;;9.30;6.10;;;;;;;19.73;65.54;99921.73;104493;1260;64179;-66
2023/06/26 03:42:11;;;;;;;8.10;5.80;;;;;;;19.74;65.86;99921.52;104535;1265;61394;-67
2023/06/26 03:44:38;;;;;;;9.30;6.80;;;;;;;19.77;66.11;99921.01;104670;1264;62440;-65
2023/06/26 03:47:06;;;;;;;10.20;6.10;;;;;;;19.80;66.24;99923.41;104525;1262;59607;-67
2023/06/26 03:49:35;;;;;;;11.70;7.10;;;;;;;19.85;66.17;99922.34;104745;1264;59642;-65
2023/06/26 03:52:02;;;;;;;9.10;6.60;;;;;;;19.88;66.10;99917.72;104473;1261;64144;-64
2023/06/26 03:54:30;;;;;;;10.50;6.20;;;;;;;19.90;66.04;99914.60;104626;1260;61653;-64
2023/06/26 03:56:58;;;;;;;9.80;7.00;;;;;;;19.90;65.95;99913.63;104596;1259;63975;-65
2023/06/26 03:59:25;;;;;;;11.20;7.10;;;;;;;19.92;66.26;99916.50;104659;1260;59627;-58
2023/06/26 04:01:53;;;;;;;8.70;6.30;;;;;;;19.94;66.14;99915.25;104705;1262;60290;-57
2023/06/26 04:04:21;;;;;;;10.10;5.90;;;;;;;19.98;65.91;99909.27;104793;1260;64089;-56
2023/06/26 04:06:48;;;;;;;9.60;6.70;;;;;;;20.03;65.93;99912.05;104394;1260;61377;-56
2023/06/26 04:09:16;;;;;;;8.40;6.00;;;;;;;20.11;65.72;99911.75;104612;1263;63692;-56
2023/06/26 04:11:44;;;;;;;9.90;6.00;;;;;;;20.09;65.59;99912.30;104609;1260;59680;-58
2023/06/26 04:14:12;;;;;;;8.10;5.50;;;;;;;20.00;65.88;99911.69;104671;1260;59694;-54
2023/06/26 04:16:40;;;;;;;8.00;5.90;;;;;;;19.94;66.05;99906.38;104504;1260;64268;-55
2023/06/26 04:19:09;;;;;;;9.10;6.60;;;;;;;19.93;66.24;99908.92;104619;1260;60114;-54
2023/06/26 04:21:37;;;;;;;8.50;5.20;;;;;;;20.02;66.14;99908.73;104369;1265;70522;-56
2023/06/26 04:24:05;;;;;;;7.40;4.90;;;;;;;20.15;66.07;99910.15;104747;1263;59631;-57
2023/06/26 04:26:33;;;;;;;8.40;5.70;;;;;;;20.26;65.98;99911.58;105098;1259;59990;-59
2023/06/26 04:29:00;;;;;;;9.00;6.00;;;;;;;20.37;64.83;99906.27;104659;1263;64237;-56
2023/06/26 04:31:28;;;;;;;8.20;5.70;;;;;;;20.41;64.03;99908.19;104550;1260;62060;-56
2023/06/26 04:33:55;;;;;;;9.20;5.90;;;;;;;20.42;64.14;99910.95;104587;1260;63770;-59
2023/06/26 04:36:23;;;;;;;10.10;5.50;;;;;;;20.42;64.22;99911.16;104737;1260;59825;-57
2023/06/26 04:38:51;;;;;;;7.90;5.40;;;;;;;20.43;64.30;99911.83;104701;1264;59775;-55
2023/06/26 04:41:18;;;;;;;7.40;5.20;;;;;;;20.43;64.28;99913.63;104556;1259;64170;-64
2023/06/26 04:43:46;;;;;;;8.00;5.20;;;;;;;20.43;63.85;99909.94;104559;1260;61385;-59
2023/06/26 04:46:13;;;;;;;7.90;5.60;;;;;;;20.43;64.02;99906.85;104618;1260;63793;-59
2023/06/26 04:48:41;;;;;;;10.00;5.30;;;;;;;20.44;63.75;99896.86;104545;1260;59769;-57
2023/06/26 04:51:08;;;;;;;7.70;5.60;;;;;;;20.44;63.81;99897.52;104600;1260;59733;-57
2023/06/26 04:53:36;;;;;;;8.40;5.90;;;;;;;20.47;63.74;99895.67;104549;1264;64132;-57
2023/06/26 04:56:03;;;;;;;8.40;5.20;;;;;;;20.51;63.84;99895.90;104694;1265;60189;-57
2023/06/26 04:58:31;;;;;;;8.80;5.60;;;;;;;20.55;64.06;99891.23;104596;1260;62513;-57
2023/06/26 05:00:58;;;;;;;8.90;5.90;;;;;;;20.59;63.74;99893.17;104515;1261;59742;-56
2023/06/26 05:03:26;;;;;;;9.60;5.80;;;;;;;20.62;63.40;99893.27;104789;1260;59678;-57
2023/06/26 05:05:54;;;;;;;9.80;5.60;;;;;;;20.62;63.36;99888.02;104966;1260;64123;-56
2023/06/26 05:08:23;;;;;;;9.20;6.20;;;;;;;20.64;62.88;99882.52;104617;1260;61433;-61
2023/06/26 05:10:51;;;;;;;9.30;6.00;;;;;;;20.66;62.53;99878.95;104498;1264;63762;-57
2023/06/26 05:13:19;;;;;;;8.10;5.70;;;;;;;20.72;62.76;99875.23;104527;1259;59725;-56
2023/06/26 05:15:47;;;;;;;8.90;5.70;;;;;;;20.80;62.84;99878.09;107196;1260;59679;-58
2023/06/26 05:18:14;;;;;;;10.20;7.00;;;;;;;20.86;62.27;99875.85;104627;1260;62938;-56
2023/06/26 05:20:42;;;;;;;9.00;6.00;;;;;;;20.91;62.12;99872.42;104499;1264;60205;-58
2023/06/26 05:23:13;;;;;;;12.00;6.40;;;;;;;20.97;61.69;99867.19;104839;1264;63792;-57
2023/06/26 05:25:41;;;;;;;8.00;5.40;;;;;;;21.03;61.12;99866.41;105102;1262;60581;-58
2023/06/26 05:28:10;;;;;;;8.60;5.80;;;;;;;21.05;60.77;99864.39;108659;1259;58435;-58
2023/06/26 05:30:38;;;;;;;8.30;6.00;;;;;;;21.04;60.15;99862.17;108584;1258;73038;-57
2023/06/26 05:33:06;;;;;;;10.20;5.80;;;;;;;21.08;60.54;99854.02;108630;1259;60245;-58
2023/06/26 05:35:33;;;;;;;8.70;6.00;;;;;;;21.17;60.44;99848.97;108643;1258;63663;-56
2023/06/26 05:38:01;;;;;;;7.30;5.50;;;;;;;21.24;60.59;99847.03;108630;1259;57466;-58
2023/06/26 05:40:29;;;;;;;9.00;6.20;;;;;;;21.34;60.31;99848.31;108615;1258;59226;-57
2023/06/26 05:42:57;;;;;;;10.00;6.20;;;;;;;21.41;59.46;99852.66;108648;1258;64148;-59
2023/06/26 05:45:24;;;;;;;7.70;5.40;;;;;;;21.47;59.51;99854.79;105627;1260;61376;-59
2023/06/26 05:47:51;;;;;;;8.30;5.80;;;;;;;21.57;58.99;99852.27;104494;1260;64212;-58
2023/06/26 05:50:20;;;;;;;8.30;5.70;;;;;;;21.65;58.12;99854.94;108613;1259;58121;-60
2023/06/26 05:52:47;;;;;;;8.00;5.40;;;;;;;21.63;57.16;99853.61;108589;1259;59056;-57
2023/06/26 05:55:15;;;;;;;7.40;5.80;;;;;;;21.60;57.38;99853.14;108674;1260;62851;-59
2023/06/26 05:57:43;;;;;;;7.90;5.80;;;;;;;21.57;57.07;99849.64;108602;1259;60752;-58
2023/06/26 06:00:11;;;;;;;7.60;5.90;;;;;;;21.55;57.11;99855.54;108635;1259;62474;-57
2023/06/26 06:02:42;;;;;;;9.30;5.30;;;;;;;21.54;57.26;99856.03;108599;1260;58925;-64
2023/06/26 06:05:10;;;;;;;7.50;5.20;;;;;;;21.51;57.29;99855.25;105369;1260;60513;-60
2023/06/26 06:07:38;;;;;;;8.10;6.00;;;;;;;21.50;57.71;99854.91;104442;1264;64992;-58
2023/06/26 06:10:05;;;;;;;8.80;6.00;;;;;;;21.46;57.28;99853.66;104833;1264;60561;-59
2023/06/26 06:12:33;;;;;;;8.10;5.90;;;;;;;21.42;57.42;99855.92;104383;1260;63733;-62
2023/06/26 06:15:00;;;;;;;6.80;5.00;;;;;;;21.40;57.79;99857.13;104836;1260;60468;-64
2023/06/26 06:17:28;;;;;;;8.00;5.30;;;;;;;21.41;57.51;99853.05;104518;1266;61457;-62
2023/06/26 06:19:56;;;;;;;7.30;5.50;;;;;;;21.41;57.81;99852.92;104937;1260;64885;-65
2023/06/26 06:22:23;;;;;;;6.90;4.50;;;;;;;21.38;57.31;99855.34;104511;1263;60665;-66
2023/06/26 06:24:51;;;;;;;9.40;4.80;;;;;;;21.38;56.91;99852.70;104511;1260;62609;-68
2023/06/26 06:27:19;;;;;;;7.70;4.80;;;;;;;21.38;57.14;99853.20;104690;1262;60858;-66
2023/06/26 06:29:46;;;;;;;8.40;4.90;;;;;;;21.44;57.37;99852.92;104545;1260;60476;-66
2023/06/26 06:32:14;;;;;;;7.40;4.70;;;;;;;21.50;57.50;99852.48;104770;1262;65400;-59
2023/06/26 06:34:42;;;;;;;8.40;5.00;;;;;;;21.52;57.19;99849.98;104760;1258;61315;-64
2023/06/26 06:37:09;;;;;;;7.70;5.00;;;;;;;21.51;57.26;99852.20;104563;1260;63756;-68
2023/06/26 06:39:37;;;;;;;10.10;6.00;;;;;;;21.45;57.03;99845.36;104532;1260;60589;-70
2023/06/26 06:42:05;;;;;;;8.50;4.80;;;;;;;21.37;57.21;99853.20;104502;1260;60552;-61
2023/06/26 06:44:32;;;;;;;8.20;4.90;;;;;;;21.28;57.39;99854.61;104447;1263;64936;-61
2023/06/26 06:47:00;;;;;;;8.80;5.50;;;;;;;21.22;57.67;99857.36;104442;1263;61322;-66
2023/06/26 06:49:27;;;;;;;7.40;4.80;;;;;;;21.16;57.89;99854.03;104595;1260;63709;-61
2023/06/26 06:51:55;;;;;;;6.60;4.60;;;;;;;21.12;57.90;99856.98;104400;1264;60419;-65
2023/06/26 06:54:26;;;;;;;7.90;4.90;;;;;;;21.12;58.30;99854.06;104480;1262;61114;-68
2023/06/26 06:56:53;;;;;;;8.20;5.00;;;;;;;21.14;57.88;99855.13;104661;1265;64957;-62
2023/06/26 06:59:21;;;;;;;7.90;4.70;;;;;;;21.16;57.98;99856.70;104730;1260;61355;-62
2023/06/26 07:01:48;;;;;;;6.80;5.00;;;;;;;21.14;57.70;99855.80;104328;1263;64034;-60
2023/06/26 07:04:16;;;;;;;7.50;5.30;;;;;;;21.12;57.91;99852.17;104407;1264;60523;-62
2023/06/26 07:06:43;;;;;;;7.70;5.10;;;;;;;21.09;57.90;99854.23;104542;1262;60400;-59
2023/06/26 07:09:11;;;;;;;11.10;5.10;;;;;;;21.11;58.48;99854.52;104579;1260;63627;-59
2023/06/26 07:11:39;;;;;;;6.80;4.60;;;;;;;21.13;58.19;99849.83;104495;1260;61381;-64
2023/06/26 07:14:06;;;;;;;7.20;4.70;;;;;;;21.13;58.08;99853.86;104517;1264;62529;-55
2023/06/26 07:16:34;;;;;;;6.60;4.40;;;;;;;21.13;57.75;99850.60;104533;1260;60598;-56
2023/06/26 07:19:02;;;;;;;6.90;3.60;;;;;;;21.13;57.70;99850.65;104523;1260;60632;-55
2023/06/26 07:21:30;;;;;;;6.30;4.00;;;;;;;21.14;57.83;99850.20;104387;1260;64974;-54
2023/06/26 07:23:58;;;;;;;5.60;3.50;;;;;;;21.20;57.36;99846.95;104495;1264;61323;-52
2023/06/26 07:26:25;;;;;;;6.60;4.10;;;;;;;21.30;57.21;99842.80;104449;1260;63925;-55
2023/06/26 07:29:06;;;;;;;5.70;3.50;;;;;;;21.44;57.11;99842.84;104577;1260;60572;-56
2023/06/26 07:31:34;;;;;;;6.10;3.80;;;;;;;21.51;56.87;99844.34;105001;1263;60693;-59
2023/06/26 07:34:02;;;;;;;6.10;3.40;;;;;;;21.50;56.68;99844.16;104461;1263;64923;-54
2023/06/26 07:36:29;;;;;;;6.00;3.90;;;;;;;21.45;56.98;99844.81;104368;1265;61985;-55
2023/06/26 07:38:57;;;;;;;5.50;3.30;;;;;;;21.40;57.48;99850.54;104582;1263;64268;-57
2023/06/26 07:41:24;;;;;;;5.50;3.40;;;;;;;21.36;56.76;99858.52;104381;1260;60611;-57
2023/06/26 07:43:52;;;;;;;6.50;3.50;;;;;;;21.32;56.81;99856.39;104641;1265;60380;-57
2023/06/26 07:46:20;;;;;;;5.70;3.50;;;;;;;21.23;57.17;99858.23;104413;1264;64986;-57
2023/06/26 07:48:49;;;;;;;6.20;3.40;;;;;;;21.15;57.36;99854.34;104456;1265;60399;-56
2023/06/26 07:51:18;;;;;;;5.20;3.00;;;;;;;21.08;57.34;99846.91;104383;1260;62766;-58
2023/06/26 07:53:45;;;;;;;6.30;3.50;;;;;;;21.09;57.44;99847.89;105190;1263;60516;-61
2023/06/26 07:56:15;;;;;;;5.50;3.40;;;;;;;21.16;57.44;99850.45;104599;1261;60565;-55
2023/06/26 07:58:44;;;;;;;6.80;3.90;;;;;;;21.27;57.03;99852.59;104519;1263;66089;-56
2023/06/26 08:01:14;;;;;;;5.60;3.30;;;;;;;21.37;56.67;99853.74;104853;1263;60579;-55
2023/06/26 08:03:43;;;;;;;6.50;3.90;;;;;;;21.44;55.90;99851.23;104757;1263;64174;-54
2023/06/26 08:06:15;;;;;;;5.80;3.50;;;;;;;21.45;56.27;99849.66;104592;1259;60450;-58
2023/06/26 08:08:43;;;;;;;5.80;3.00;;;;;;;21.41;56.20;99852.09;105102;1260;61781;-62
2023/06/26 08:11:10;;;;;;;6.30;3.30;;;;;;;21.42;56.22;99856.70;104500;1260;65011;-60
2023/06/26 08:13:39;;;;;;;6.40;3.00;;;;;;;21.38;56.27;99851.47;104490;1260;61390;-66
2023/06/26 08:16:07;;;;;;;7.20;3.10;;;;;;;21.36;56.66;99854.40;104639;1260;66058;-61
2023/06/26 08:18:34;;;;;;;6.60;2.80;;;;;;;21.39;56.89;99857.09;104535;1263;60576;-62
2023/06/26 08:21:02;;;;;;;9.80;3.10;;;;;;;21.45;56.59;99851.31;104624;1259;60495;-60
2023/06/26 08:23:31;;;;;;;5.00;2.80;;;;;;;21.52;56.58;99849.04;104536;1260;65245;-62
2023/06/26 08:25:59;;;;;;;5.00;2.70;;;;;;;21.61;55.87;99845.89;104508;1260;61414;-60
2023/06/26 08:28:26;;;;;;;6.50;3.60;;;;;;;21.66;55.82;99843.37;104601;1263;66249;-59
2023/06/26 08:30:54;;;;;;;5.30;3.10;;;;;;;21.73;55.81;99847.67;104486;1260;60576;-54
2023/06/26 08:33:22;;;;;;;7.60;3.50;;;;;;;21.78;55.60;99852.50;104872;1263;60495;-56
2023/06/26 08:35:50;;;;;;;6.00;3.30;;;;;;;21.79;56.21;99852.02;104703;1260;64926;-56
2023/06/26 08:38:18;;;;;;;6.70;3.40;;;;;;;21.86;56.47;99850.57;104906;1265;61477;-56
2023/06/26 08:40:48;;;;;;;5.80;3.10;;;;;;;22.00;55.60;99847.12;104507;1263;63727;-58
2023/06/26 08:43:16;;;;;;;4.80;3.10;;;;;;;22.13;54.84;99846.45;104658;1261;62124;-56
2023/06/26 08:45:44;;;;;;;5.50;3.60;;;;;;;22.18;54.52;99851.30;104375;1260;60921;-56
2023/06/26 08:48:12;;;;;;;5.90;2.90;;;;;;;22.19;54.21;99849.80;104554;1260;75877;-55
2023/06/26 08:50:40;;;;;;;5.50;3.40;;;;;;;22.18;54.76;99849.08;104328;1265;60468;-54
2023/06/26 08:53:37;;;;;;;8.10;3.40;;;;;;;22.19;55.05;99854.48;104436;1263;64235;-55
2023/06/26 08:56:04;;;;;;;5.90;3.20;;;;;;;22.23;55.07;99857.54;104407;1261;60569;-57
2023/06/26 08:58:32;;;;;;;6.40;2.80;;;;;;;22.26;54.61;99861.95;104378;1259;63348;-57
2023/06/26 09:00:59;;;;;;;5.40;3.50;;;;;;;22.27;54.42;99860.96;104439;1266;65361;-59
2023/06/26 09:03:27;;;;;;;5.20;2.90;;;;;;;22.28;54.20;99857.46;104516;1264;64729;-60
2023/06/26 09:05:54;;;;;;;5.70;3.10;;;;;;;22.26;54.26;99861.65;104508;1265;71813;-66
2023/06/26 09:08:22;;;;;;;5.30;3.30;;;;;;;22.21;54.33;99863.20;104501;1264;62129;-61
2023/06/26 09:10:49;;;;;;;5.50;2.80;;;;;;;22.16;54.57;99861.48;105439;1265;60840;-63
2023/06/26 09:13:18;;;;;;;6.70;2.80;;;;;;;22.16;55.02;99866.22;105675;1264;65272;-59
2023/06/26 09:18:32;;;;;;;4.60;2.40;;;;;;;22.11;54.61;99865.99;102430;1289;600437;-60
2023/06/26 09:21:00;;;;;;;4.10;1.80;;;;;;;21.98;54.82;99871.84;104121;1267;59457;-61
2023/06/26 09:23:28;;;;;;;4.10;2.10;;;;;;;21.89;54.92;99868.74;104105;1267;59950;-63
2023/06/26 09:25:55;;;;;;;4.40;1.40;;;;;;;21.87;54.95;99867.91;105058;1267;63342;-62
2023/06/26 09:28:23;;;;;;;4.00;1.40;;;;;;;21.91;54.93;99869.25;104500;1272;60257;-63
2023/06/26 09:30:51;;;;;;;3.60;1.30;;;;;;;22.02;54.55;99869.60;104327;1273;64391;-60
2023/06/26 09:33:19;;;;;;;3.30;1.30;;;;;;;22.11;54.13;99866.77;104348;1266;203235;-67
2023/06/26 09:35:48;;;;;;;3.30;1.50;;;;;;;22.15;54.21;99865.70;105341;1264;60256;-65
2023/06/26 09:38:17;;;;;;;3.70;1.60;;;;;;;22.10;54.22;99865.30;104938;1266;63390;-60
2023/06/26 09:40:45;;;;;;;4.50;1.20;;;;;;;22.02;54.76;99866.73;104542;1270;60117;-60
2023/06/26 09:43:13;;;;;;;3.80;1.30;;;;;;;21.95;55.17;99865.39;104683;1269;63730;-63
2023/06/26 09:45:41;;;;;;;3.30;1.10;;;;;;;21.95;55.02;99865.02;104496;1263;60942;-65
2023/06/26 09:48:08;;;;;;;3.70;1.20;;;;;;;21.94;55.14;99861.80;104265;1263;60649;-64
2023/06/26 09:50:37;;;;;;;7.60;1.20;;;;;;;21.87;55.25;99861.93;104560;1263;64680;-70
2023/06/26 09:53:10;;;;;;;4.80;1.00;;;;;;;21.75;55.45;99866.09;104260;1263;61364;-74
2023/06/26 09:55:38;;;;;;;3.20;1.00;;;;;;;21.67;56.06;99871.04;104690;1267;63736;-68
2023/06/26 09:58:06;;;;;;;3.40;1.00;;;;;;;21.65;56.51;99868.58;104328;1270;59756;-65
2023/06/26 10:00:33;;;;;;;2.10;0.70;;;;;;;21.67;56.26;99873.64;104397;1264;59570;-59
2023/06/26 10:03:01;;;;;;;3.20;0.80;;;;;;;21.62;56.27;99872.21;104930;1263;62857;-63
2023/06/26 10:05:29;;;;;;;2.80;0.70;;;;;;;21.49;56.41;99871.63;104688;1270;62633;-70
2023/06/26 10:07:56;;;;;;;3.90;1.10;;;;;;;21.40;56.58;99874.00;104261;1263;63733;-70
2023/06/26 10:10:24;;;;;;;2.50;0.90;;;;;;;21.42;57.24;99875.40;104186;1263;59734;-63
2023/06/26 10:12:54;;;;;;;4.00;1.00;;;;;;;21.41;57.74;99878.56;104260;1269;60173;-61
2023/06/26 10:15:22;;;;;;;4.60;1.30;;;;;;;21.35;58.21;99882.48;105221;1264;62981;-60
2023/06/26 10:17:49;;;;;;;2.70;0.90;;;;;;;21.29;58.52;99885.06;104265;1264;62806;-64
2023/06/26 10:20:17;;;;;;;3.00;1.10;;;;;;;21.28;58.79;99884.53;104850;1269;64284;-62
2023/06/26 10:22:46;;;;;;;4.00;1.30;;;;;;;21.24;58.85;99887.99;104473;1263;59820;-62
2023/06/26 10:25:19;;;;;;;3.70;1.20;;;;;;;21.21;59.01;99888.57;104190;1263;59750;-62
2023/06/26 10:27:50;;;;;;;3.90;1.40;;;;;;;21.20;58.90;99891.73;108293;1266;63003;-66
2023/06/26 10:30:21;;;;;;;3.80;1.70;;;;;;;21.24;59.01;99890.55;108124;1264;61386;-62
2023/06/26 10:32:49;;;;;;;3.60;1.20;;;;;;;21.33;58.94;99894.38;108210;1264;64133;-60
2023/06/26 10:35:16;;;;;;;3.20;1.40;;;;;;;21.41;58.79;99893.35;108252;1267;58076;-67
2023/06/26 10:37:48;;;;;;;6.40;1.40;;;;;;;21.47;58.37;99892.16;108256;1264;59530;-63
2023/06/26 10:40:24;;;;;;;3.30;1.30;;;;;;;21.54;57.96;99893.63;108731;1257;65298;-63
2023/06/26 10:43:13;;;;;;;3.10;1.40;;;;;;;21.61;57.49;99888.73;108698;1257;70783;-62
2023/06/26 10:45:45;;;;;;;3.40;1.30;;;;;;;21.68;57.47;99894.64;108711;1258;64232;-60
2023/06/26 10:48:14;;;;;;;4.10;1.50;;;;;;;21.70;57.21;99894.47;105838;1257;59985;-57
2023/06/26 10:50:42;;;;;;;3.90;1.60;;;;;;;21.69;57.43;99906.67;106114;1259;60951;-62
2023/06/26 10:53:20;;;;;;;4.10;1.40;;;;;;;21.65;57.15;99906.59;104871;1257;67025;-64
2023/06/26 10:55:50;;;;;;;3.90;1.50;;;;;;;21.53;56.58;99911.73;104801;1257;61323;-61
2023/06/26 10:58:40;;;;;;;3.50;1.40;;;;;;;21.36;56.64;99914.02;105065;1258;65750;-60
2023/06/26 11:01:11;;;;;;;5.00;1.70;;;;;;;21.19;57.09;99912.19;105953;1257;59701;-55
2023/06/26 11:03:39;;;;;;;7.40;1.80;;;;;;;21.09;57.58;99917.56;104829;1257;59746;-57
2023/06/26 11:06:34;;;;;;;5.40;2.30;;;;;;;21.09;57.73;99917.48;104682;1261;64146;-56
2023/06/26 11:09:05;;;;;;;3.30;1.40;;;;;;;21.22;57.86;99916.09;104908;1257;62093;-55
2023/06/26 11:11:51;;;;;;;4.50;1.70;;;;;;;21.42;57.67;99920.15;104920;1257;63807;-54
2023/06/26 11:14:19;;;;;;;4.30;1.60;;;;;;;21.64;56.93;99914.58;105286;1260;59739;-56
2023/06/26 11:16:48;;;;;;;5.30;2.20;;;;;;;21.84;56.33;99912.05;105184;1259;59669;-58
2023/06/26 11:19:19;;;;;;;3.80;1.50;;;;;;;22.03;55.49;99909.47;104894;1257;62846;-54
2023/06/26 11:21:46;;;;;;;5.00;1.80;;;;;;;22.21;55.50;99911.27;104772;1257;61433;-55
2023/06/26 11:24:14;;;;;;;4.90;1.70;;;;;;;22.40;54.49;99910.74;104922;1256;64891;-57
2023/06/26 11:26:42;;;;;;;4.30;1.80;;;;;;;22.57;52.93;99909.47;104882;1263;59663;-56
2023/06/26 11:29:10;;;;;;;4.00;1.90;;;;;;;22.71;52.75;99908.34;105088;1257;59694;-55
2023/06/26 11:31:39;;;;;;;4.70;1.90;;;;;;;22.81;52.49;99911.09;104980;1253;64550;-59
2023/06/26 11:34:09;;;;;;;4.70;2.10;;;;;;;22.85;52.77;99913.34;105548;1254;61515;-55
2023/06/26 11:36:37;;;;;;;4.20;1.80;;;;;;;22.90;51.98;99915.00;105178;1254;63894;-56
2023/06/26 11:39:06;;;;;;;4.50;2.20;;;;;;;22.91;51.99;99911.36;104999;1259;59768;-56
2023/06/26 11:41:34;;;;;;;5.60;2.00;;;;;;;22.92;52.58;99915.45;105086;1254;59917;-57
2023/06/26 11:44:02;;;;;;;4.20;1.90;;;;;;;22.92;51.94;99921.02;104890;1254;64275;-57
2023/06/26 11:46:32;;;;;;;3.70;1.70;;;;;;;22.92;51.96;99920.52;106206;1256;61877;-59